Time;durP1;ratioP1;P1;durP2;ratioP2;P2;SDS_P1;SDS_P2;PMS_P1;PMS_P2;Temp;Humidity;BMP_temperature;BMP_pressure;BME280_temperature;BME280_humidity;BME280_pressure;Samples;Min_cycle;Max_cycle;Signal;HPM_P1;HPM_P2
2024/01/24 00:05:02;;;;;;;1.65;0.38;;;;;;;;;;10583338;27;20083;-80
2024/01/24 00:10:10;;;;;;;0.17;0.05;;;;;;;;;;10584945;27;20039;-79
2024/01/24 00:15:15;;;;;;;2.13;0.75;;;;;;;;;;10563565;27;20134;-79
2024/01/24 00:20:31;;;;;;;0.73;0.30;;;;;;;;;;10562162;27;20051;-79
2024/01/24 00:25:39;;;;;;;0.52;0.30;;;;;;;;;;10581333;27;20047;-79
2024/01/24 00:30:54;;;;;;;1.20;0.30;;;;;;;;;;10558968;27;20043;-80
2024/01/24 00:36:01;;;;;;;0.10;0.10;;;;;;;;;;10571353;27;20532;-80
2024/01/24 00:41:09;;;;;;;1.65;0.40;;;;;;;;;;10577787;27;20184;-81
2024/01/24 00:46:18;;;;;;;0.45;0.30;;;;;;;;;;10585835;27;20176;-80
2024/01/24 00:51:27;;;;;;;1.00;0.35;;;;;;;;;;10585814;27;20527;-80
2024/01/24 00:56:33;;;;;;;0.90;0.22;;;;;;;;;;10556841;27;20051;-80
2024/01/24 01:01:42;;;;;;;0.55;0.30;;;;;;;;;;10583098;27;22014;-80
2024/01/24 01:06:50;;;;;;;1.20;0.10;;;;;;;;;;10563872;27;20050;-78
2024/01/24 01:11:57;;;;;;;0.28;0.28;;;;;;;;;;10581935;27;20574;-82
2024/01/24 01:17:05;;;;;;;1.23;0.10;;;;;;;;;;10575342;27;20140;-79
2024/01/24 01:22:12;;;;;;;0.20;0.20;;;;;;;;;;10583881;27;20043;-79
2024/01/24 01:27:16;;;;;;;0.60;0.32;;;;;;;;;;10575398;27;20039;-78
2024/01/24 01:32:20;;;;;;;0.20;0.20;;;;;;;;;;10556372;27;20050;-79
2024/01/24 01:37:40;;;;;;;0.22;0.20;;;;;;;;;;10589707;27;20032;-79
2024/01/24 01:48:06;;;;;;;0.10;0.10;;;;;;;;;;10580972;27;20043;-79
2024/01/24 01:53:15;;;;;;;0.63;0.32;;;;;;;;;;10575275;27;20151;-80
2024/01/24 01:58:22;;;;;;;0.47;0.35;;;;;;;;;;10575658;27;20606;-81
2024/01/24 02:03:41;;;;;;;0.73;0.22;;;;;;;;;;10586003;27;20142;-80
2024/01/24 02:08:51;;;;;;;0.45;0.20;;;;;;;;;;10570317;27;20502;-81
2024/01/24 02:14:00;;;;;;;0.28;0.10;;;;;;;;;;10568928;27;20036;-82
2024/01/24 02:19:09;;;;;;;0.32;0.10;;;;;;;;;;10581639;27;20570;-81
2024/01/24 02:24:15;;;;;;;0.40;0.30;;;;;;;;;;10565779;27;20050;-81
2024/01/24 02:29:19;;;;;;;0.10;0.10;;;;;;;;;;10564248;27;20089;-82
2024/01/24 02:34:24;;;;;;;0.65;0.45;;;;;;;;;;10581251;27;20060;-81
2024/01/24 02:44:51;;;;;;;0.05;0.05;;;;;;;;;;10586678;27;20057;-81
2024/01/24 02:50:04;;;;;;;1.52;0.20;;;;;;;;;;10571993;27;20038;-81
2024/01/24 02:55:17;;;;;;;0.63;0.40;;;;;;;;;;10580389;27;20205;-80
2024/01/24 03:00:20;;;;;;;0.43;0.13;;;;;;;;;;10578006;27;22474;-80
2024/01/24 03:05:26;;;;;;;0.40;0.20;;;;;;;;;;10564089;27;20048;-82
2024/01/24 03:10:33;;;;;;;1.05;0.20;;;;;;;;;;10569089;27;20248;-81
2024/01/24 03:15:37;;;;;;;0.32;0.30;;;;;;;;;;10585305;27;20530;-81
2024/01/24 03:20:49;;;;;;;0.20;0.20;;;;;;;;;;10587803;27;20043;-80
2024/01/24 03:25:57;;;;;;;0.10;0.10;;;;;;;;;;10586269;27;20513;-81
2024/01/24 03:31:03;;;;;;;1.85;0.28;;;;;;;;;;10583639;27;20050;-83
2024/01/24 03:36:11;;;;;;;0.82;0.32;;;;;;;;;;10573655;27;20448;-81
2024/01/24 03:41:24;;;;;;;0.20;0.20;;;;;;;;;;10592707;27;20038;-81
2024/01/24 03:46:30;;;;;;;1.50;0.20;;;;;;;;;;10567749;27;20036;-81
2024/01/24 03:51:44;;;;;;;0.28;0.20;;;;;;;;;;10591406;27;20130;-82
2024/01/24 03:57:02;;;;;;;0.35;0.20;;;;;;;;;;10570902;27;20670;-81
2024/01/24 04:02:05;;;;;;;0.52;0.13;;;;;;;;;;10570257;27;20044;-80
2024/01/24 04:07:12;;;;;;;1.25;0.10;;;;;;;;;;10581894;27;20042;-80
2024/01/24 04:12:19;;;;;;;0.20;0.20;;;;;;;;;;10568320;27;20571;-80
2024/01/24 04:17:24;;;;;;;0.10;0.10;;;;;;;;;;10551955;27;20045;-80
2024/01/24 04:22:28;;;;;;;;;;;;;;;;;;10582585;27;20100;-79
2024/01/24 04:27:34;;;;;;;0.30;0.20;;;;;;;;;;10581387;27;19945;-80
2024/01/24 04:32:38;;;;;;;0.60;0.40;;;;;;;;;;10552357;27;20040;-80
2024/01/24 04:37:47;;;;;;;0.30;0.30;;;;;;;;;;10577593;27;20043;-79
2024/01/24 04:42:55;;;;;;;2.08;0.30;;;;;;;;;;10566370;27;20506;-79
2024/01/24 04:48:12;;;;;;;0.50;0.15;;;;;;;;;;10567327;27;20031;-80
2024/01/24 04:53:18;;;;;;;0.47;0.30;;;;;;;;;;10588152;27;20454;-80
2024/01/24 04:58:31;;;;;;;0.75;0.30;;;;;;;;;;10587082;27;20039;-81
2024/01/24 05:03:42;;;;;;;3.42;0.30;;;;;;;;;;10584098;27;20047;-80
2024/01/24 05:08:56;;;;;;;0.57;0.32;;;;;;;;;;10569751;27;20063;-80
2024/01/24 05:14:09;;;;;;;0.38;0.30;;;;;;;;;;10582517;27;20503;-80
2024/01/24 05:19:19;;;;;;;1.75;0.30;;;;;;;;;;10580864;27;20435;-82
2024/01/24 05:24:30;;;;;;;2.35;0.47;;;;;;;;;;10581196;27;20225;-80
2024/01/24 05:29:39;;;;;;;1.08;0.35;;;;;;;;;;10552097;27;20048;-80
2024/01/24 05:34:46;;;;;;;0.50;0.40;;;;;;;;;;10582881;27;20044;-82
2024/01/24 05:39:56;;;;;;;0.60;0.30;;;;;;;;;;10577420;27;20416;-81
2024/01/24 05:45:09;;;;;;;1.38;0.32;;;;;;;;;;10592980;27;20078;-84
2024/01/24 05:50:16;;;;;;;1.40;0.20;;;;;;;;;;10596058;27;20091;-82
2024/01/24 05:55:22;;;;;;;0.57;0.20;;;;;;;;;;10583716;27;20053;-83
2024/01/24 06:00:36;;;;;;;0.40;0.40;;;;;;;;;;10588018;27;20476;-81
2024/01/24 06:05:44;;;;;;;1.02;0.47;;;;;;;;;;10585936;27;20139;-81
2024/01/24 06:10:52;;;;;;;0.30;0.30;;;;;;;;;;10584919;27;20046;-81
2024/01/24 06:15:59;;;;;;;0.57;0.35;;;;;;;;;;10570730;27;20122;-81
2024/01/24 06:21:06;;;;;;;0.38;0.38;;;;;;;;;;10585328;27;20042;-83
2024/01/24 06:26:13;;;;;;;0.95;0.50;;;;;;;;;;10571757;27;20043;-83
2024/01/24 06:36:40;;;;;;;1.63;0.40;;;;;;;;;;10580477;27;20126;-81
2024/01/24 06:41:51;;;;;;;1.73;0.30;;;;;;;;;;10586449;27;20084;-80
2024/01/24 06:46:58;;;;;;;0.22;0.22;;;;;;;;;;10582603;27;20509;-80
2024/01/24 06:57:25;;;;;;;0.68;0.50;;;;;;;;;;10571771;27;20050;-80
2024/01/24 07:02:32;;;;;;;0.50;0.50;;;;;;;;;;10568795;27;20059;-81
2024/01/24 07:07:40;;;;;;;0.30;0.30;;;;;;;;;;10560197;27;20036;-81
2024/01/24 07:12:46;;;;;;;0.52;0.50;;;;;;;;;;10581633;27;20039;-81
2024/01/24 07:18:08;;;;;;;0.98;0.50;;;;;;;;;;10588078;27;20038;-79
2024/01/24 07:23:15;;;;;;;1.95;0.65;;;;;;;;;;10584202;27;20047;-80
2024/01/24 07:28:35;;;;;;;2.13;0.40;;;;;;;;;;10588352;27;20637;-81
2024/01/24 07:33:55;;;;;;;1.10;0.45;;;;;;;;;;10560424;27;20047;-80
2024/01/24 07:39:04;;;;;;;1.38;0.40;;;;;;;;;;10569292;27;20050;-80
2024/01/24 07:44:10;;;;;;;1.05;0.60;;;;;;;;;;10561515;27;20051;-81
2024/01/24 07:49:28;;;;;;;0.75;0.40;;;;;;;;;;10580518;27;20039;-82
2024/01/24 07:54:51;;;;;;;0.57;0.40;;;;;;;;;;10583796;27;20043;-81
2024/01/24 08:00:04;;;;;;;1.63;0.32;;;;;;;;;;10567360;27;20600;-81
2024/01/24 08:05:22;;;;;;;0.88;0.40;;;;;;;;;;10584017;27;20635;-81
2024/01/24 08:10:32;;;;;;;1.88;0.57;;;;;;;;;;10583679;27;20043;-81
2024/01/24 08:15:38;;;;;;;1.85;0.73;;;;;;;;;;10584372;27;20492;-81
2024/01/24 08:20:45;;;;;;;2.25;0.50;;;;;;;;;;10562569;27;20046;-82
2024/01/24 08:25:49;;;;;;;0.40;0.40;;;;;;;;;;10567000;27;20138;-82
2024/01/24 08:31:06;;;;;;;0.17;0.17;;;;;;;;;;10554303;27;20039;-81
2024/01/24 08:36:16;;;;;;;0.60;0.50;;;;;;;;;;10576541;27;20035;-82
2024/01/24 08:41:30;;;;;;;0.73;0.52;;;;;;;;;;10564264;27;20050;-80
2024/01/24 08:46:35;;;;;;;1.05;0.47;;;;;;;;;;10563665;27;20047;-80
2024/01/24 08:51:41;;;;;;;0.47;0.28;;;;;;;;;;10579926;27;20518;-81
2024/01/24 08:56:47;;;;;;;1.23;0.50;;;;;;;;;;10578362;27;20599;-81
2024/01/24 09:02:01;;;;;;;1.13;0.40;;;;;;;;;;10563481;27;20050;-80
2024/01/24 09:12:36;;;;;;;1.13;0.50;;;;;;;;;;10460609;27;20530;-81
2024/01/24 09:17:38;;;;;;;0.60;0.50;;;;;;;;;;10428126;28;20573;-81
2024/01/24 09:22:41;;;;;;;2.25;0.63;;;;;;;;;;10426508;28;20049;-81
2024/01/24 09:27:46;;;;;;;0.57;0.40;;;;;;;;;;10422175;28;20127;-80
2024/01/24 09:32:48;;;;;;;1.15;0.80;;;;;;;;;;10425041;28;20423;-81
2024/01/24 09:37:52;;;;;;;0.95;0.73;;;;;;;;;;10423508;28;20128;-81
2024/01/24 09:42:56;;;;;;;1.58;0.70;;;;;;;;;;10425127;28;20060;-83
2024/01/24 09:47:59;;;;;;;12.27;0.63;;;;;;;;;;10432299;28;20139;-81
2024/01/24 09:53:03;;;;;;;1.23;0.80;;;;;;;;;;10424667;28;20037;-82
2024/01/24 09:58:07;;;;;;;0.47;0.47;;;;;;;;;;10421656;28;20063;-81
2024/01/24 10:03:13;;;;;;;0.63;0.50;;;;;;;;;;10423170;28;20041;-80
2024/01/24 10:08:16;;;;;;;0.43;0.40;;;;;;;;;;10422073;28;20148;-81
2024/01/24 10:13:20;;;;;;;1.08;0.52;;;;;;;;;;10428326;28;20059;-82
2024/01/24 10:18:23;;;;;;;;;;;;;;;;;;10433785;28;20116;-82
2024/01/24 10:23:26;;;;;;;1.55;0.40;;;;;;;;;;10398031;28;20385;-82
2024/01/24 10:33:53;;;;;;;1.10;0.57;;;;;;;;;;10394348;28;20216;-83
2024/01/24 10:38:59;;;;;;;0.88;0.80;;;;;;;;;;10397284;28;20457;-83
2024/01/24 10:44:06;;;;;;;1.15;0.60;;;;;;;;;;10392771;28;20519;-87
2024/01/24 10:49:10;;;;;;;0.50;0.50;;;;;;;;;;10399484;28;20529;-85
2024/01/24 10:54:15;;;;;;;0.93;0.82;;;;;;;;;;10397584;28;20124;-84
2024/01/24 10:59:19;;;;;;;1.83;0.60;;;;;;;;;;10393375;28;20045;-85
2024/01/24 11:04:23;;;;;;;1.98;0.65;;;;;;;;;;10392409;28;20049;-84
2024/01/24 11:09:27;;;;;;;1.85;0.73;;;;;;;;;;10393345;28;20131;-84
2024/01/24 11:14:32;;;;;;;1.70;0.80;;;;;;;;;;10397543;28;20140;-86
2024/01/24 11:19:35;;;;;;;0.40;0.40;;;;;;;;;;10391641;28;20043;-85
2024/01/24 11:24:52;;;;;;;1.15;0.45;;;;;;;;;;10397262;28;20041;-86
2024/01/24 11:29:58;;;;;;;1.05;0.47;;;;;;;;;;10396616;28;20049;-84
2024/01/24 11:35:16;;;;;;;0.35;0.35;;;;;;;;;;10393819;28;20230;-85
2024/01/24 11:40:19;;;;;;;2.25;0.43;;;;;;;;;;10394400;28;20422;-86
2024/01/24 11:45:24;;;;;;;1.95;0.50;;;;;;;;;;10395400;28;20053;-84
2024/01/24 11:50:27;;;;;;;0.60;0.50;;;;;;;;;;10396547;28;20037;-85
2024/01/24 11:55:31;;;;;;;3.07;0.70;;;;;;;;;;10405936;28;20459;-84
2024/01/24 12:00:35;;;;;;;0.93;0.38;;;;;;;;;;10410566;28;20059;-84
2024/01/24 12:05:38;;;;;;;1.38;0.40;;;;;;;;;;10393391;28;20467;-86
2024/01/24 12:10:40;;;;;;;1.70;0.40;;;;;;;;;;10398408;28;20510;-85
2024/01/24 12:15:45;;;;;;;0.70;0.37;;;;;;;;;;10394613;28;20049;-84
2024/01/24 12:20:48;;;;;;;0.57;0.30;;;;;;;;;;10394375;28;20050;-85
2024/01/24 12:25:51;;;;;;;0.88;0.43;;;;;;;;;;10383935;28;20049;-84
2024/01/24 12:30:57;;;;;;;1.27;0.70;;;;;;;;;;10394094;28;20057;-85
2024/01/24 12:36:03;;;;;;;2.20;0.43;;;;;;;;;;10400992;28;20049;-85
2024/01/24 12:41:06;;;;;;;1.08;0.55;;;;;;;;;;10394377;28;20092;-85
2024/01/24 12:46:12;;;;;;;0.60;0.35;;;;;;;;;;10390678;28;20450;-84
2024/01/24 12:51:15;;;;;;;0.65;0.50;;;;;;;;;;10392002;28;20045;-85
2024/01/24 12:56:19;;;;;;;0.50;0.30;;;;;;;;;;10394725;28;20147;-85
2024/01/24 13:01:21;;;;;;;;;;;;;;;;;;10384210;28;20052;-84
2024/01/24 13:06:27;;;;;;;0.75;0.40;;;;;;;;;;10393590;28;20033;-85
2024/01/24 13:11:31;;;;;;;0.52;0.30;;;;;;;;;;10388645;28;20491;-85
2024/01/24 13:16:34;;;;;;;0.85;0.38;;;;;;;;;;10387701;28;20060;-84
2024/01/24 13:21:38;;;;;;;0.88;0.30;;;;;;;;;;10402170;28;20042;-85
2024/01/24 13:26:45;;;;;;;0.20;0.20;;;;;;;;;;10394103;28;20419;-84
2024/01/24 13:31:47;;;;;;;1.00;0.40;;;;;;;;;;10386588;28;20097;-83
2024/01/24 13:36:52;;;;;;;0.77;0.20;;;;;;;;;;10391909;28;20582;-84
2024/01/24 13:41:55;;;;;;;0.52;0.38;;;;;;;;;;10392913;28;20330;-85
2024/01/24 13:46:59;;;;;;;1.38;0.50;;;;;;;;;;10390451;28;20076;-83
2024/01/24 13:52:03;;;;;;;1.23;0.60;;;;;;;;;;10396761;28;20093;-84
2024/01/24 13:57:06;;;;;;;0.75;0.40;;;;;;;;;;10395252;28;20088;-84
2024/01/24 14:02:10;;;;;;;1.03;0.30;;;;;;;;;;10410880;28;20049;-85
2024/01/24 14:07:13;;;;;;;;;;;;;;;;;;10398620;28;20045;-84
2024/01/24 14:12:17;;;;;;;1.55;0.40;;;;;;;;;;10396464;28;20017;-83
2024/01/24 14:17:21;;;;;;;0.32;0.28;;;;;;;;;;10394782;28;20053;-82
2024/01/24 14:22:23;;;;;;;0.90;0.40;;;;;;;;;;10400491;28;20041;-83
2024/01/24 14:27:28;;;;;;;0.45;0.30;;;;;;;;;;10398183;28;20064;-84
2024/01/24 14:32:30;;;;;;;;;;;;;;;;;;10394264;28;20033;-84
2024/01/24 14:37:33;;;;;;;0.65;0.30;;;;;;;;;;10397006;28;19925;-83
2024/01/24 14:42:37;;;;;;;0.63;0.20;;;;;;;;;;10400855;28;20173;-83
2024/01/24 14:47:40;;;;;;;1.58;0.52;;;;;;;;;;10395071;28;20518;-85
2024/01/24 14:52:43;;;;;;;1.50;0.33;;;;;;;;;;10403714;28;20037;-83
2024/01/24 14:57:47;;;;;;;0.50;0.30;;;;;;;;;;10401331;28;20115;-83
2024/01/24 15:02:51;;;;;;;1.55;0.30;;;;;;;;;;10400492;28;20693;-84
2024/01/24 15:07:57;;;;;;;0.35;0.20;;;;;;;;;;10394260;28;20426;-83
2024/01/24 15:13:01;;;;;;;0.10;0.10;;;;;;;;;;10400897;28;20095;-83
2024/01/24 15:18:04;;;;;;;0.30;0.30;;;;;;;;;;10395251;28;20037;-84
2024/01/24 15:23:07;;;;;;;0.47;0.30;;;;;;;;;;10398234;28;20036;-83
2024/01/24 15:28:12;;;;;;;0.53;0.40;;;;;;;;;;10396409;28;20432;-83
2024/01/24 15:33:15;;;;;;;0.77;0.60;;;;;;;;;;10399032;28;20042;-84
2024/01/24 15:38:18;;;;;;;0.43;0.40;;;;;;;;;;10389846;28;20045;-81
2024/01/24 15:43:28;;;;;;;0.90;0.55;;;;;;;;;;10392377;28;20117;-80
2024/01/24 15:48:31;;;;;;;1.77;0.50;;;;;;;;;;10401044;28;20044;-82
2024/01/24 15:53:34;;;;;;;1.48;0.43;;;;;;;;;;10391061;28;20063;-82
2024/01/24 15:58:38;;;;;;;0.45;0.45;;;;;;;;;;10387040;28;20487;-82
2024/01/24 16:03:41;;;;;;;0.65;0.45;;;;;;;;;;10389657;28;20075;-82
2024/01/24 16:08:45;;;;;;;;;;;;;;;;;;10400779;28;20036;-80
2024/01/24 16:13:50;;;;;;;1.85;0.70;;;;;;;;;;10397960;28;20051;-82
2024/01/24 16:18:53;;;;;;;2.15;0.50;;;;;;;;;;10388627;28;20037;-79
2024/01/24 16:23:56;;;;;;;1.13;0.40;;;;;;;;;;10396992;28;20056;-81
2024/01/24 16:29:00;;;;;;;0.68;0.40;;;;;;;;;;10396355;28;20052;-81
2024/01/24 16:34:03;;;;;;;0.40;0.20;;;;;;;;;;10393933;28;20127;-80
2024/01/24 16:39:07;;;;;;;2.80;0.53;;;;;;;;;;10410336;28;20052;-80
2024/01/24 16:44:11;;;;;;;0.80;0.40;;;;;;;;;;10405610;28;20102;-80
2024/01/24 16:49:13;;;;;;;;;;;;;;;;;;10413832;28;20235;-82
2024/01/24 16:54:16;;;;;;;2.72;0.80;;;;;;;;;;10408296;28;19951;-82
2024/01/24 16:59:20;;;;;;;0.80;0.60;;;;;;;;;;10412760;28;20141;-82
2024/01/24 17:04:24;;;;;;;2.53;0.60;;;;;;;;;;10419355;28;20049;-82
2024/01/24 17:09:28;;;;;;;1.80;0.70;;;;;;;;;;10425447;28;20060;-82
2024/01/24 17:14:32;;;;;;;0.90;0.35;;;;;;;;;;10427026;28;20072;-81
2024/01/24 17:19:35;;;;;;;;;;;;;;;;;;10425679;28;20061;-81
2024/01/24 17:24:38;;;;;;;2.97;0.60;;;;;;;;;;10428574;28;19929;-80
2024/01/24 17:29:44;;;;;;;2.90;0.70;;;;;;;;;;10432355;28;20056;-81
2024/01/24 17:34:46;;;;;;;0.93;0.60;;;;;;;;;;10422608;28;20038;-83
2024/01/24 17:39:51;;;;;;;1.88;0.70;;;;;;;;;;10421468;28;20079;-82
2024/01/24 17:44:55;;;;;;;2.20;0.63;;;;;;;;;;10420346;28;20041;-78
2024/01/24 17:49:58;;;;;;;5.43;0.60;;;;;;;;;;10433158;28;20041;-79
2024/01/24 17:55:01;;;;;;;3.83;0.75;;;;;;;;;;10427819;28;20032;-79
2024/01/24 18:00:07;;;;;;;3.03;1.00;;;;;;;;;;10431302;28;20061;-80
2024/01/24 18:05:10;;;;;;;4.15;0.77;;;;;;;;;;10427624;28;20069;-80
2024/01/24 18:10:14;;;;;;;2.40;1.00;;;;;;;;;;10428081;28;20037;-79
2024/01/24 18:15:18;;;;;;;2.87;1.07;;;;;;;;;;10415147;28;20121;-79
2024/01/24 18:20:22;;;;;;;;;;;;;;;;;;10413925;28;20041;-80
2024/01/24 18:25:25;;;;;;;5.90;1.20;;;;;;;;;;10405521;28;19927;-80
2024/01/24 18:30:29;;;;;;;3.17;1.10;;;;;;;;;;10411937;28;20075;-80
2024/01/24 18:35:33;;;;;;;2.83;0.70;;;;;;;;;;10417508;28;20045;-80
2024/01/24 18:40:36;;;;;;;2.72;1.30;;;;;;;;;;10415469;28;20049;-80
2024/01/24 18:45:40;;;;;;;3.53;1.20;;;;;;;;;;10401308;28;20084;-79
2024/01/24 18:50:43;;;;;;;;;;;;;;;;;;10404107;28;20033;-79
2024/01/24 18:55:46;;;;;;;3.20;0.82;;;;;;;;;;10403683;28;19921;-79
2024/01/24 19:00:51;;;;;;;4.05;0.85;;;;;;;;;;10395563;28;20058;-77
2024/01/24 19:05:54;;;;;;;2.25;0.80;;;;;;;;;;10400776;28;20531;-78
2024/01/24 19:10:57;;;;;;;4.50;0.90;;;;;;;;;;10402315;28;20036;-79
2024/01/24 19:16:01;;;;;;;3.70;0.90;;;;;;;;;;10401762;28;20054;-78
2024/01/24 19:21:04;;;;;;;3.15;0.95;;;;;;;;;;10394669;28;20080;-76
2024/01/24 19:26:07;;;;;;;2.67;0.80;;;;;;;;;;10397700;28;20117;-80
2024/01/24 19:31:11;;;;;;;4.97;1.30;;;;;;;;;;10407934;28;20040;-80
2024/01/24 19:36:16;;;;;;;3.45;0.70;;;;;;;;;;10401908;28;20056;-80
2024/01/24 19:41:18;;;;;;;3.28;1.00;;;;;;;;;;10395193;28;20048;-80
2024/01/24 19:46:22;;;;;;;6.32;1.55;;;;;;;;;;10444111;28;20048;-79
2024/01/24 19:51:25;;;;;;;;;;;;;;;;;;10481551;28;20063;-79
2024/01/24 19:56:28;;;;;;;2.75;0.93;;;;;;;;;;10483307;28;19977;-80
2024/01/24 20:01:32;;;;;;;2.15;0.60;;;;;;;;;;10484217;28;20044;-82
2024/01/24 20:06:37;;;;;;;1.33;0.70;;;;;;;;;;10482088;28;20064;-79
2024/01/24 20:11:41;;;;;;;2.13;0.70;;;;;;;;;;10474554;28;20033;-82
2024/01/24 20:16:45;;;;;;;3.05;0.63;;;;;;;;;;10482335;28;20055;-82
2024/01/24 20:21:48;;;;;;;3.80;0.82;;;;;;;;;;10464921;28;20493;-83
2024/01/24 20:26:52;;;;;;;3.35;1.00;;;;;;;;;;10484025;28;20090;-81
2024/01/24 20:31:57;;;;;;;5.30;1.02;;;;;;;;;;10476089;28;20047;-80
2024/01/24 20:37:01;;;;;;;3.50;0.80;;;;;;;;;;10477577;28;20044;-79
2024/01/24 20:42:04;;;;;;;4.47;0.90;;;;;;;;;;10456110;28;20036;-80
2024/01/24 20:47:16;;;;;;;3.15;0.80;;;;;;;;;;10482678;28;20494;-81
2024/01/24 20:52:20;;;;;;;2.95;0.80;;;;;;;;;;10480280;28;20051;-80
2024/01/24 20:57:23;;;;;;;4.55;0.93;;;;;;;;;;10482872;28;20052;-79
2024/01/24 21:02:27;;;;;;;3.70;1.40;;;;;;;;;;10477715;28;20036;-81
2024/01/24 21:07:29;;;;;;;;;;;;;;;;;;10476372;28;20053;-79
2024/01/24 21:12:32;;;;;;;5.72;1.10;;;;;;;;;;10456830;28;19921;-80
2024/01/24 21:17:38;;;;;;;3.92;1.30;;;;;;;;;;10476328;28;20048;-80
2024/01/24 21:22:41;;;;;;;10.68;1.20;;;;;;;;;;10474829;28;20123;-79
2024/01/24 21:27:44;;;;;;;2.47;0.90;;;;;;;;;;10479457;28;20044;-79
2024/01/24 21:32:48;;;;;;;5.47;1.55;;;;;;;;;;10477703;28;20043;-79
2024/01/24 21:37:51;;;;;;;3.22;0.85;;;;;;;;;;10473848;28;20051;-80
2024/01/24 21:42:54;;;;;;;3.65;0.77;;;;;;;;;;10479261;28;20071;-80
2024/01/24 21:47:58;;;;;;;4.90;1.25;;;;;;;;;;10472997;28;20049;-79
2024/01/24 21:53:00;;;;;;;;;;;;;;;;;;10481384;28;20079;-78
2024/01/24 21:58:04;;;;;;;4.15;0.93;;;;;;;;;;10473993;28;20307;-78
2024/01/24 22:03:08;;;;;;;5.72;1.10;;;;;;;;;;10458551;28;20041;-79
2024/01/24 22:08:11;;;;;;;4.63;0.98;;;;;;;;;;10476903;28;20052;-77
2024/01/24 22:13:14;;;;;;;4.55;1.13;;;;;;;;;;10471689;28;20053;-78
2024/01/24 22:18:18;;;;;;;1.80;0.68;;;;;;;;;;10483181;28;20063;-79
2024/01/24 22:23:28;;;;;;;3.90;1.02;;;;;;;;;;10489687;28;20028;-78
2024/01/24 22:28:31;;;;;;;4.13;1.20;;;;;;;;;;10488188;28;20110;-79
2024/01/24 22:33:35;;;;;;;3.65;0.85;;;;;;;;;;10483091;28;20073;-78
2024/01/24 22:38:39;;;;;;;10.95;1.42;;;;;;;;;;10484321;28;20044;-80
2024/01/24 22:43:41;;;;;;;5.97;0.98;;;;;;;;;;10483849;28;20048;-79
2024/01/24 22:48:46;;;;;;;6.72;1.42;;;;;;;;;;10482880;28;20080;-78
2024/01/24 22:53:49;;;;;;;8.30;1.70;;;;;;;;;;10483296;28;20045;-80
2024/01/24 22:58:52;;;;;;;5.90;1.15;;;;;;;;;;10483112;28;20517;-79
2024/01/24 23:03:57;;;;;;;12.88;1.70;;;;;;;;;;10458329;28;20089;-79
2024/01/24 23:08:59;;;;;;;;;;;;;;;;;;10481364;28;20059;-78
2024/01/24 23:14:02;;;;;;;7.32;1.25;;;;;;;;;;10484038;28;19934;-78
2024/01/24 23:19:06;;;;;;;7.60;1.10;;;;;;;;;;10481086;28;20127;-76
2024/01/24 23:24:09;;;;;;;4.03;1.45;;;;;;;;;;10484134;28;20105;-79
2024/01/24 23:29:11;;;;;;;6.13;1.38;;;;;;;;;;10477329;28;20189;-79
2024/01/24 23:34:15;;;;;;;9.43;1.70;;;;;;;;;;10480716;28;20492;-78
2024/01/24 23:39:18;;;;;;;6.80;1.23;;;;;;;;;;10475184;28;20069;-77
2024/01/24 23:44:21;;;;;;;5.20;1.55;;;;;;;;;;10477666;28;20155;-79
2024/01/24 23:49:24;;;;;;;5.15;1.55;;;;;;;;;;10484147;28;20128;-78
2024/01/24 23:54:27;;;;;;;11.43;1.50;;;;;;;;;;10483568;28;20033;-77
2024/01/24 23:59:30;;;;;;;6.78;1.80;;;;;;;;;;10484078;28;20059;-79
